»·PEaware :: N5335J KPDX-KSEA

N5335J :: KPDX-KSEA

FLIGHT INFORMATION

Flight Status: Arrived
Operator: Privately registered:
United States
More flights under this callsign
Pilot: Joseph J. (19398)
Aircraft: CESSNA 310
(C310)
More flights by this aircraft type
Origin: KPDX Portland Intl
United States
Destination: KSEA Seattle-Tacoma Intl
United States
More flights between these airports :: More routes between these airports
Route: +BTG V23 SEA
File this flight plan on PilotEdge
Remarks:
Altitude:
(Current/Filed)
12,000ft
Speed:
(Current/Filed)
170kts
Departed: 17-Dec-18 09:55 AM
Arrived: 17-Dec-18 10:50 AM
Distance/Time
Traveled:
112nm/0:55
Distance/Time
To Go:
Arrived

Flight Plot

Page will automatically refresh every two minutes.

Flight plan parsing failed; only flown route is shown


Map Options




Map Legend


Flown Route
Filed Route
Departure Airport
Arrival Airport
Navaid (VOR, NDB)
Fix

Horizontal Profiles

Position Reports

Time Latitude Longitude Heading Altitude Ground
Speed
17-Dec-18 09:45 45.587435 -122.583524 208 20ft 0kts
17-Dec-18 09:46 45.587435 -122.583524 208 20ft 0kts
17-Dec-18 09:47 45.587435 -122.583524 208 20ft 0kts
17-Dec-18 09:48 45.587435 -122.583524 208 20ft 0kts
17-Dec-18 09:49 45.587435 -122.583524 208 20ft 0kts
17-Dec-18 09:50 45.588076 -122.583932 19 20ft 1kts
17-Dec-18 09:51 45.589588 -122.586334 262 20ft 19kts
17-Dec-18 09:52 45.592233 -122.594409 297 21ft 23kts
17-Dec-18 09:53 45.595457 -122.600723 26 23ft 0kts
17-Dec-18 09:54 45.595589 -122.597718 118 23ft 55kts
17-Dec-18 09:55 45.581016 -122.559505 117 890ft 127kts
17-Dec-18 09:56 45.563259 -122.513275 117 2101ft 138kts
17-Dec-18 09:57 45.545699 -122.468218 117 3214ft 143kts
17-Dec-18 09:58 45.518554 -122.466465 251 4277ft 159kts
17-Dec-18 09:59 45.545038 -122.496044 354 5381ft 158kts
17-Dec-18 10:00 45.582686 -122.508431 344 6411ft 165kts
17-Dec-18 10:01 45.617325 -122.524265 340 7351ft 169kts
17-Dec-18 10:02 45.656313 -122.543726 337 8398ft 173kts
17-Dec-18 10:03 45.695932 -122.564037 334 9454ft 172kts
17-Dec-18 10:04 45.734899 -122.584163 333 10507ft 171kts
17-Dec-18 10:05 45.776000 -122.598709 343 11588ft 174kts
17-Dec-18 10:06 45.819753 -122.609050 342 12012ft 197kts
17-Dec-18 10:07 45.867465 -122.620701 343 12007ft 211kts
17-Dec-18 10:08 45.917559 -122.633076 343 12003ft 214kts
17-Dec-18 10:09 45.969022 -122.645875 343 12045ft 213kts
17-Dec-18 10:10 46.019145 -122.658396 343 12044ft 214kts
17-Dec-18 10:11 46.072039 -122.671626 343 12041ft 214kts
17-Dec-18 10:12 46.125416 -122.685003 343 12035ft 213kts
17-Dec-18 10:13 46.175358 -122.697549 343 12036ft 212kts
17-Dec-18 10:14 46.224067 -122.709808 343 12036ft 212kts
17-Dec-18 10:15 46.275824 -122.722855 343 12036ft 212kts
17-Dec-18 10:16 46.328209 -122.736086 343 12036ft 212kts
17-Dec-18 10:17 46.380737 -122.749378 343 12037ft 212kts
17-Dec-18 10:18 46.432914 -122.761789 359 12012ft 219kts
17-Dec-18 10:19 46.484198 -122.734117 14 12025ft 223kts
17-Dec-18 10:20 46.535855 -122.710036 12 12016ft 223kts
17-Dec-18 10:21 46.586783 -122.687238 12 12010ft 222kts
17-Dec-18 10:22 46.637225 -122.664763 12 12010ft 222kts
17-Dec-18 10:23 46.688383 -122.641949 12 12011ft 222kts
17-Dec-18 10:24 46.742319 -122.617852 12 12008ft 223kts
17-Dec-18 10:25 46.794558 -122.594465 12 11999ft 223kts
17-Dec-18 10:26 46.849218 -122.569943 12 11992ft 223kts
17-Dec-18 10:27 46.901793 -122.546422 12 11988ft 223kts
17-Dec-18 10:28 46.955819 -122.522498 12 11989ft 224kts
17-Dec-18 10:29 47.011971 -122.498140 12 11991ft 226kts
17-Dec-18 10:30 47.065039 -122.473355 21 11988ft 229kts
17-Dec-18 10:31 47.119932 -122.457068 5 11154ft 217kts
17-Dec-18 10:32 47.170884 -122.445113 5 10235ft 212kts
17-Dec-18 10:33 47.216880 -122.435149 5 9282ft 210kts
17-Dec-18 10:34 47.260700 -122.426564 5 8366ft 207kts
17-Dec-18 10:35 47.307001 -122.418554 5 7385ft 204kts
17-Dec-18 10:36 47.352755 -122.411697 5 6397ft 200kts
17-Dec-18 10:37 47.399441 -122.405537 5 5988ft 194kts
17-Dec-18 10:38 47.450156 -122.398759 5 5659ft 204kts
17-Dec-18 10:39 47.504700 -122.391656 5 4640ft 191kts
17-Dec-18 10:40 47.553872 -122.385512 5 3684ft 184kts
17-Dec-18 10:41 47.602512 -122.379620 5 2979ft 165kts
17-Dec-18 10:42 47.627270 -122.345927 85 2999ft 140kts
17-Dec-18 10:43 47.606050 -122.318709 173 2759ft 130kts
17-Dec-18 10:44 47.572052 -122.317362 175 2402ft 135kts
17-Dec-18 10:45 47.538644 -122.317305 179 1888ft 111kts
17-Dec-18 10:46 47.510769 -122.317591 177 1184ft 98kts
17-Dec-18 10:47 47.484267 -122.317816 178 820ft 90kts
17-Dec-18 10:48 47.460472 -122.317902 178 330ft 70kts
17-Dec-18 10:49 47.451459 -122.317945 178 363ft 20kts
17-Dec-18 10:50 47.447511 -122.316339 146 371ft 11kts
17-Dec-18 10:51 47.443220 -122.313564 177 367ft 23kts
17-Dec-18 10:52 47.439389 -122.315339 85 351ft 0kts

Navigation Log

Ident Type
Flight plan parsing failed, navigation log unavailable